sensor_id;sensor_type;location;lat;lon;timestamp;P1;durP1;ratioP1;P2;durP2;ratioP2
60169;SDS011;46042;49.444;6.862;2023-03-01T00:00:06;5.33;;;3.40;;
60169;SDS011;46042;49.444;6.862;2023-03-01T00:02:33;6.43;;;3.20;;
60169;SDS011;46042;49.444;6.862;2023-03-01T00:05:00;6.87;;;3.63;;
60169;SDS011;46042;49.444;6.862;2023-03-01T00:07:27;5.33;;;3.37;;
60169;SDS011;46042;49.444;6.862;2023-03-01T00:09:53;5.40;;;3.23;;
60169;SDS011;46042;49.444;6.862;2023-03-01T00:12:20;5.60;;;3.37;;
60169;SDS011;46042;49.444;6.862;2023-03-01T00:14:47;6.53;;;2.60;;
60169;SDS011;46042;49.444;6.862;2023-03-01T00:17:13;5.33;;;3.17;;
60169;SDS011;46042;49.444;6.862;2023-03-01T00:19:40;5.23;;;3.43;;
60169;SDS011;46042;49.444;6.862;2023-03-01T00:22:07;5.80;;;3.50;;
60169;SDS011;46042;49.444;6.862;2023-03-01T00:24:33;5.10;;;3.23;;
60169;SDS011;46042;49.444;6.862;2023-03-01T00:27:00;5.93;;;3.60;;
60169;SDS011;46042;49.444;6.862;2023-03-01T00:29:26;6.83;;;3.40;;
60169;SDS011;46042;49.444;6.862;2023-03-01T00:31:53;5.87;;;2.93;;
60169;SDS011;46042;49.444;6.862;2023-03-01T00:34:20;6.73;;;3.27;;
60169;SDS011;46042;49.444;6.862;2023-03-01T00:36:46;5.90;;;3.57;;
60169;SDS011;46042;49.444;6.862;2023-03-01T00:39:14;5.23;;;3.17;;
60169;SDS011;46042;49.444;6.862;2023-03-01T00:41:41;6.43;;;4.00;;
60169;SDS011;46042;49.444;6.862;2023-03-01T00:44:09;5.43;;;3.43;;
60169;SDS011;46042;49.444;6.862;2023-03-01T00:46:36;4.67;;;3.57;;
60169;SDS011;46042;49.444;6.862;2023-03-01T00:49:03;6.63;;;3.40;;
60169;SDS011;46042;49.444;6.862;2023-03-01T00:51:30;5.43;;;3.17;;
60169;SDS011;46042;49.444;6.862;2023-03-01T00:53:59;6.03;;;3.10;;
60169;SDS011;46042;49.444;6.862;2023-03-01T00:56:27;5.23;;;3.70;;
60169;SDS011;46042;49.444;6.862;2023-03-01T00:58:55;6.00;;;3.53;;
60169;SDS011;46042;49.444;6.862;2023-03-01T01:01:23;5.30;;;3.70;;
60169;SDS011;46042;49.444;6.862;2023-03-01T01:03:54;8.27;;;3.37;;
60169;SDS011;46042;49.444;6.862;2023-03-01T01:06:27;6.43;;;3.20;;
60169;SDS011;46042;49.444;6.862;2023-03-01T01:08:56;5.40;;;3.77;;
60169;SDS011;46042;49.444;6.862;2023-03-01T01:11:23;6.57;;;3.73;;
60169;SDS011;46042;49.444;6.862;2023-03-01T01:13:51;4.83;;;3.17;;
60169;SDS011;46042;49.444;6.862;2023-03-01T01:16:19;6.37;;;3.03;;
60169;SDS011;46042;49.444;6.862;2023-03-01T01:18:46;5.57;;;3.47;;
60169;SDS011;46042;49.444;6.862;2023-03-01T01:21:14;5.30;;;3.30;;
60169;SDS011;46042;49.444;6.862;2023-03-01T01:23:43;7.73;;;3.70;;
60169;SDS011;46042;49.444;6.862;2023-03-01T01:26:15;5.37;;;2.97;;
60169;SDS011;46042;49.444;6.862;2023-03-01T01:28:44;7.67;;;4.17;;
60169;SDS011;46042;49.444;6.862;2023-03-01T01:31:12;7.73;;;3.83;;
60169;SDS011;46042;49.444;6.862;2023-03-01T01:33:38;9.10;;;3.67;;
60169;SDS011;46042;49.444;6.862;2023-03-01T01:36:06;7.07;;;3.80;;
60169;SDS011;46042;49.444;6.862;2023-03-01T01:38:34;5.70;;;3.37;;
60169;SDS011;46042;49.444;6.862;2023-03-01T01:41:01;8.47;;;4.10;;
60169;SDS011;46042;49.444;6.862;2023-03-01T01:43:29;8.90;;;4.30;;
60169;SDS011;46042;49.444;6.862;2023-03-01T01:48:52;4.50;;;2.70;;
60169;SDS011;46042;49.444;6.862;2023-03-01T01:51:24;6.30;;;3.53;;
60169;SDS011;46042;49.444;6.862;2023-03-01T01:53:56;7.23;;;4.30;;
60169;SDS011;46042;49.444;6.862;2023-03-01T01:56:27;7.17;;;3.50;;
60169;SDS011;46042;49.444;6.862;2023-03-01T01:58:55;6.67;;;4.17;;
60169;SDS011;46042;49.444;6.862;2023-03-01T02:01:23;6.97;;;3.80;;
60169;SDS011;46042;49.444;6.862;2023-03-01T02:03:49;9.43;;;4.50;;
60169;SDS011;46042;49.444;6.862;2023-03-01T02:06:20;6.37;;;3.77;;
60169;SDS011;46042;49.444;6.862;2023-03-01T02:08:57;5.07;;;3.40;;
60169;SDS011;46042;49.444;6.862;2023-03-01T02:11:27;5.90;;;3.83;;
60169;SDS011;46042;49.444;6.862;2023-03-01T02:13:55;4.83;;;3.00;;
60169;SDS011;46042;49.444;6.862;2023-03-01T02:16:22;6.33;;;3.43;;
60169;SDS011;46042;49.444;6.862;2023-03-01T02:18:49;12.37;;;4.40;;
60169;SDS011;46042;49.444;6.862;2023-03-01T02:21:19;7.80;;;3.97;;
60169;SDS011;46042;49.444;6.862;2023-03-01T02:23:53;9.17;;;4.00;;
60169;SDS011;46042;49.444;6.862;2023-03-01T02:26:33;6.13;;;3.67;;
60169;SDS011;46042;49.444;6.862;2023-03-01T02:29:11;11.03;;;4.67;;
60169;SDS011;46042;49.444;6.862;2023-03-01T02:31:37;6.50;;;3.30;;
60169;SDS011;46042;49.444;6.862;2023-03-01T02:34:15;5.47;;;3.60;;
60169;SDS011;46042;49.444;6.862;2023-03-01T02:36:51;7.73;;;4.27;;
60169;SDS011;46042;49.444;6.862;2023-03-01T02:39:31;6.07;;;3.90;;
60169;SDS011;46042;49.444;6.862;2023-03-01T02:42:03;5.87;;;3.23;;
60169;SDS011;46042;49.444;6.862;2023-03-01T02:44:30;9.67;;;4.03;;
60169;SDS011;46042;49.444;6.862;2023-03-01T02:46:57;7.27;;;4.13;;
60169;SDS011;46042;49.444;6.862;2023-03-01T02:49:29;7.90;;;4.78;;
60169;SDS011;46042;49.444;6.862;2023-03-01T02:57:40;7.47;;;4.20;;
60169;SDS011;46042;49.444;6.862;2023-03-01T03:00:09;6.67;;;3.97;;
60169;SDS011;46042;49.444;6.862;2023-03-01T03:02:46;8.63;;;4.13;;
60169;SDS011;46042;49.444;6.862;2023-03-01T03:05:21;17.60;;;5.27;;
60169;SDS011;46042;49.444;6.862;2023-03-01T03:07:50;8.57;;;4.00;;
60169;SDS011;46042;49.444;6.862;2023-03-01T03:10:18;7.50;;;4.23;;
60169;SDS011;46042;49.444;6.862;2023-03-01T03:12:52;7.90;;;4.27;;
60169;SDS011;46042;49.444;6.862;2023-03-01T03:15:22;17.20;;;4.60;;
60169;SDS011;46042;49.444;6.862;2023-03-01T03:17:50;7.57;;;4.60;;
60169;SDS011;46042;49.444;6.862;2023-03-01T03:20:18;6.20;;;3.70;;
60169;SDS011;46042;49.444;6.862;2023-03-01T03:25:16;6.20;;;3.90;;
60169;SDS011;46042;49.444;6.862;2023-03-01T03:27:44;11.33;;;5.10;;
60169;SDS011;46042;49.444;6.862;2023-03-01T03:30:13;6.00;;;3.83;;
60169;SDS011;46042;49.444;6.862;2023-03-01T03:32:43;9.90;;;4.60;;
60169;SDS011;46042;49.444;6.862;2023-03-01T03:36:01;6.13;;;3.77;;
60169;SDS011;46042;49.444;6.862;2023-03-01T03:38:14;4.27;;;2.93;;
60169;SDS011;46042;49.444;6.862;2023-03-01T03:40:44;7.57;;;4.40;;
60169;SDS011;46042;49.444;6.862;2023-03-01T03:43:13;6.70;;;4.37;;
60169;SDS011;46042;49.444;6.862;2023-03-01T03:45:43;6.17;;;3.80;;
60169;SDS011;46042;49.444;6.862;2023-03-01T03:48:11;7.27;;;4.30;;
60169;SDS011;46042;49.444;6.862;2023-03-01T03:50:38;8.10;;;4.40;;
60169;SDS011;46042;49.444;6.862;2023-03-01T03:53:07;7.67;;;4.67;;
60169;SDS011;46042;49.444;6.862;2023-03-01T03:55:35;12.63;;;5.17;;
60169;SDS011;46042;49.444;6.862;2023-03-01T03:58:06;7.77;;;4.40;;
60169;SDS011;46042;49.444;6.862;2023-03-01T04:00:35;7.33;;;3.73;;
60169;SDS011;46042;49.444;6.862;2023-03-01T04:03:06;5.80;;;3.53;;
60169;SDS011;46042;49.444;6.862;2023-03-01T04:05:34;9.80;;;5.13;;
60169;SDS011;46042;49.444;6.862;2023-03-01T04:08:02;8.70;;;4.53;;
60169;SDS011;46042;49.444;6.862;2023-03-01T04:10:29;10.20;;;4.67;;
60169;SDS011;46042;49.444;6.862;2023-03-01T04:12:58;9.47;;;4.40;;
60169;SDS011;46042;49.444;6.862;2023-03-01T04:15:25;9.07;;;5.10;;
60169;SDS011;46042;49.444;6.862;2023-03-01T04:17:53;8.73;;;4.70;;
60169;SDS011;46042;49.444;6.862;2023-03-01T04:20:25;7.67;;;4.60;;
60169;SDS011;46042;49.444;6.862;2023-03-01T04:23:05;8.97;;;5.00;;
60169;SDS011;46042;49.444;6.862;2023-03-01T04:25:38;7.23;;;4.67;;
60169;SDS011;46042;49.444;6.862;2023-03-01T04:28:05;8.00;;;4.23;;
60169;SDS011;46042;49.444;6.862;2023-03-01T04:30:32;9.23;;;4.70;;
60169;SDS011;46042;49.444;6.862;2023-03-01T04:33:06;27.27;;;5.73;;
60169;SDS011;46042;49.444;6.862;2023-03-01T04:35:34;9.17;;;4.53;;
60169;SDS011;46042;49.444;6.862;2023-03-01T04:38:03;7.83;;;4.40;;
60169;SDS011;46042;49.444;6.862;2023-03-01T04:40:30;5.83;;;3.53;;
60169;SDS011;46042;49.444;6.862;2023-03-01T04:42:58;11.07;;;4.30;;
60169;SDS011;46042;49.444;6.862;2023-03-01T04:45:24;6.40;;;3.70;;
60169;SDS011;46042;49.444;6.862;2023-03-01T04:47:51;8.27;;;4.87;;
60169;SDS011;46042;49.444;6.862;2023-03-01T04:50:20;7.83;;;4.40;;
60169;SDS011;46042;49.444;6.862;2023-03-01T04:52:49;7.40;;;4.90;;
60169;SDS011;46042;49.444;6.862;2023-03-01T04:55:17;10.27;;;5.27;;
60169;SDS011;46042;49.444;6.862;2023-03-01T04:57:44;8.13;;;5.07;;
60169;SDS011;46042;49.444;6.862;2023-03-01T05:00:12;20.73;;;5.10;;
60169;SDS011;46042;49.444;6.862;2023-03-01T05:02:47;8.07;;;4.60;;
60169;SDS011;46042;49.444;6.862;2023-03-01T05:05:14;6.67;;;4.13;;
60169;SDS011;46042;49.444;6.862;2023-03-01T05:07:41;5.60;;;3.87;;
60169;SDS011;46042;49.444;6.862;2023-03-01T05:10:08;11.70;;;5.70;;
60169;SDS011;46042;49.444;6.862;2023-03-01T05:12:35;7.83;;;4.57;;
60169;SDS011;46042;49.444;6.862;2023-03-01T05:15:04;10.20;;;5.03;;
60169;SDS011;46042;49.444;6.862;2023-03-01T05:17:33;7.80;;;4.63;;
60169;SDS011;46042;49.444;6.862;2023-03-01T05:20:00;12.20;;;5.30;;
60169;SDS011;46042;49.444;6.862;2023-03-01T05:22:27;8.93;;;5.10;;
60169;SDS011;46042;49.444;6.862;2023-03-01T05:24:54;7.30;;;4.30;;
60169;SDS011;46042;49.444;6.862;2023-03-01T05:27:21;8.53;;;4.73;;
60169;SDS011;46042;49.444;6.862;2023-03-01T05:29:48;8.57;;;5.27;;
60169;SDS011;46042;49.444;6.862;2023-03-01T05:32:14;7.23;;;4.87;;
60169;SDS011;46042;49.444;6.862;2023-03-01T05:34:42;11.33;;;5.13;;
60169;SDS011;46042;49.444;6.862;2023-03-01T05:37:08;10.93;;;5.80;;
60169;SDS011;46042;49.444;6.862;2023-03-01T05:39:35;10.37;;;5.17;;
60169;SDS011;46042;49.444;6.862;2023-03-01T05:42:02;9.07;;;5.93;;
60169;SDS011;46042;49.444;6.862;2023-03-01T05:44:28;11.53;;;5.33;;
60169;SDS011;46042;49.444;6.862;2023-03-01T05:46:55;8.30;;;5.33;;
60169;SDS011;46042;49.444;6.862;2023-03-01T05:49:22;9.97;;;5.20;;
60169;SDS011;46042;49.444;6.862;2023-03-01T05:51:52;9.07;;;4.90;;
60169;SDS011;46042;49.444;6.862;2023-03-01T05:54:20;6.67;;;4.40;;
60169;SDS011;46042;49.444;6.862;2023-03-01T05:56:47;8.57;;;5.00;;
60169;SDS011;46042;49.444;6.862;2023-03-01T05:59:14;8.03;;;4.97;;
60169;SDS011;46042;49.444;6.862;2023-03-01T06:01:42;9.13;;;5.50;;
60169;SDS011;46042;49.444;6.862;2023-03-01T06:04:09;7.33;;;4.93;;
60169;SDS011;46042;49.444;6.862;2023-03-01T06:06:36;12.03;;;6.40;;
60169;SDS011;46042;49.444;6.862;2023-03-01T06:09:07;9.67;;;5.43;;
60169;SDS011;46042;49.444;6.862;2023-03-01T06:11:35;9.23;;;5.07;;
60169;SDS011;46042;49.444;6.862;2023-03-01T06:14:03;12.60;;;4.73;;
60169;SDS011;46042;49.444;6.862;2023-03-01T06:16:30;8.57;;;5.27;;
60169;SDS011;46042;49.444;6.862;2023-03-01T06:18:57;10.73;;;5.47;;
60169;SDS011;46042;49.444;6.862;2023-03-01T06:21:24;13.97;;;5.70;;
60169;SDS011;46042;49.444;6.862;2023-03-01T06:23:50;9.70;;;5.40;;
60169;SDS011;46042;49.444;6.862;2023-03-01T06:26:18;10.70;;;6.17;;
60169;SDS011;46042;49.444;6.862;2023-03-01T06:28:45;13.87;;;5.97;;
60169;SDS011;46042;49.444;6.862;2023-03-01T06:31:12;11.43;;;5.70;;
60169;SDS011;46042;49.444;6.862;2023-03-01T06:33:39;7.97;;;4.73;;
60169;SDS011;46042;49.444;6.862;2023-03-01T06:36:06;10.53;;;6.07;;
60169;SDS011;46042;49.444;6.862;2023-03-01T06:38:33;11.17;;;5.33;;
60169;SDS011;46042;49.444;6.862;2023-03-01T06:41:00;10.33;;;6.47;;
60169;SDS011;46042;49.444;6.862;2023-03-01T06:43:27;10.20;;;4.93;;
60169;SDS011;46042;49.444;6.862;2023-03-01T06:45:53;10.10;;;6.27;;
60169;SDS011;46042;49.444;6.862;2023-03-01T06:48:20;12.37;;;5.17;;
60169;SDS011;46042;49.444;6.862;2023-03-01T06:50:47;11.27;;;5.70;;
60169;SDS011;46042;49.444;6.862;2023-03-01T06:53:13;10.43;;;5.70;;
60169;SDS011;46042;49.444;6.862;2023-03-01T06:55:40;8.73;;;5.07;;
60169;SDS011;46042;49.444;6.862;2023-03-01T06:58:07;9.17;;;6.37;;
60169;SDS011;46042;49.444;6.862;2023-03-01T07:00:35;10.00;;;5.60;;
60169;SDS011;46042;49.444;6.862;2023-03-01T07:03:01;11.03;;;5.37;;
60169;SDS011;46042;49.444;6.862;2023-03-01T07:05:29;9.03;;;5.53;;
60169;SDS011;46042;49.444;6.862;2023-03-01T07:07:56;11.27;;;5.60;;
60169;SDS011;46042;49.444;6.862;2023-03-01T07:10:23;11.07;;;5.93;;
60169;SDS011;46042;49.444;6.862;2023-03-01T07:12:49;11.13;;;4.70;;
60169;SDS011;46042;49.444;6.862;2023-03-01T07:15:16;16.23;;;5.83;;
60169;SDS011;46042;49.444;6.862;2023-03-01T07:17:43;11.60;;;5.83;;
60169;SDS011;46042;49.444;6.862;2023-03-01T07:20:10;11.70;;;5.87;;
60169;SDS011;46042;49.444;6.862;2023-03-01T07:22:39;12.47;;;5.73;;
60169;SDS011;46042;49.444;6.862;2023-03-01T07:25:07;9.87;;;6.17;;
60169;SDS011;46042;49.444;6.862;2023-03-01T07:27:34;10.57;;;5.63;;
60169;SDS011;46042;49.444;6.862;2023-03-01T07:30:01;11.63;;;5.80;;
60169;SDS011;46042;49.444;6.862;2023-03-01T07:32:27;12.17;;;5.70;;
60169;SDS011;46042;49.444;6.862;2023-03-01T07:34:54;10.77;;;5.83;;
60169;SDS011;46042;49.444;6.862;2023-03-01T07:37:21;10.30;;;7.17;;
60169;SDS011;46042;49.444;6.862;2023-03-01T07:39:47;9.77;;;6.00;;
60169;SDS011;46042;49.444;6.862;2023-03-01T07:42:14;11.30;;;5.53;;
60169;SDS011;46042;49.444;6.862;2023-03-01T07:44:41;13.10;;;6.22;;
60169;SDS011;46042;49.444;6.862;2023-03-01T07:47:07;9.15;;;5.65;;
60169;SDS011;46042;49.444;6.862;2023-03-01T07:49:34;12.27;;;6.20;;
60169;SDS011;46042;49.444;6.862;2023-03-01T07:52:01;11.95;;;6.68;;
60169;SDS011;46042;49.444;6.862;2023-03-01T07:54:27;13.40;;;6.38;;
60169;SDS011;46042;49.444;6.862;2023-03-01T07:56:55;13.57;;;8.13;;
60169;SDS011;46042;49.444;6.862;2023-03-01T07:59:23;11.20;;;7.30;;
60169;SDS011;46042;49.444;6.862;2023-03-01T08:01:55;15.50;;;7.95;;
60169;SDS011;46042;49.444;6.862;2023-03-01T08:04:23;10.93;;;7.35;;
60169;SDS011;46042;49.444;6.862;2023-03-01T08:06:51;12.07;;;7.55;;
60169;SDS011;46042;49.444;6.862;2023-03-01T08:09:17;12.60;;;8.15;;
60169;SDS011;46042;49.444;6.862;2023-03-01T08:11:44;13.98;;;8.40;;
60169;SDS011;46042;49.444;6.862;2023-03-01T08:14:11;12.82;;;7.75;;
60169;SDS011;46042;49.444;6.862;2023-03-01T08:16:38;13.85;;;7.60;;
60169;SDS011;46042;49.444;6.862;2023-03-01T08:19:05;13.57;;;8.68;;
60169;SDS011;46042;49.444;6.862;2023-03-01T08:21:37;12.13;;;7.60;;
60169;SDS011;46042;49.444;6.862;2023-03-01T08:24:04;13.07;;;8.52;;
60169;SDS011;46042;49.444;6.862;2023-03-01T08:26:32;13.70;;;8.05;;
60169;SDS011;46042;49.444;6.862;2023-03-01T08:28:59;15.40;;;8.48;;
60169;SDS011;46042;49.444;6.862;2023-03-01T08:31:31;14.10;;;9.10;;
60169;SDS011;46042;49.444;6.862;2023-03-01T08:34:08;13.55;;;8.32;;
60169;SDS011;46042;49.444;6.862;2023-03-01T08:36:38;15.07;;;8.18;;
60169;SDS011;46042;49.444;6.862;2023-03-01T08:39:06;15.32;;;8.60;;
60169;SDS011;46042;49.444;6.862;2023-03-01T08:41:36;12.65;;;8.00;;
60169;SDS011;46042;49.444;6.862;2023-03-01T08:44:03;13.55;;;8.85;;
60169;SDS011;46042;49.444;6.862;2023-03-01T08:46:31;15.05;;;8.38;;
60169;SDS011;46042;49.444;6.862;2023-03-01T08:49:00;13.43;;;8.63;;
60169;SDS011;46042;49.444;6.862;2023-03-01T08:51:26;12.00;;;8.73;;
60169;SDS011;46042;49.444;6.862;2023-03-01T08:53:53;11.30;;;8.30;;
60169;SDS011;46042;49.444;6.862;2023-03-01T08:56:20;12.90;;;8.65;;
60169;SDS011;46042;49.444;6.862;2023-03-01T08:58:47;15.18;;;8.73;;
60169;SDS011;46042;49.444;6.862;2023-03-01T09:01:16;14.98;;;9.15;;
60169;SDS011;46042;49.444;6.862;2023-03-01T09:03:44;15.63;;;8.05;;
60169;SDS011;46042;49.444;6.862;2023-03-01T09:06:11;12.55;;;8.48;;
60169;SDS011;46042;49.444;6.862;2023-03-01T09:08:40;14.05;;;8.57;;
60169;SDS011;46042;49.444;6.862;2023-03-01T09:11:10;15.43;;;9.40;;
60169;SDS011;46042;49.444;6.862;2023-03-01T09:13:39;12.40;;;8.88;;
60169;SDS011;46042;49.444;6.862;2023-03-01T09:16:10;16.30;;;9.27;;
60169;SDS011;46042;49.444;6.862;2023-03-01T09:18:37;15.57;;;8.85;;
60169;SDS011;46042;49.444;6.862;2023-03-01T09:21:05;16.20;;;9.73;;
60169;SDS011;46042;49.444;6.862;2023-03-01T09:23:40;13.20;;;8.40;;
60169;SDS011;46042;49.444;6.862;2023-03-01T09:26:09;12.10;;;9.00;;
60169;SDS011;46042;49.444;6.862;2023-03-01T09:28:38;14.85;;;8.70;;
60169;SDS011;46042;49.444;6.862;2023-03-01T09:31:07;14.68;;;9.98;;
60169;SDS011;46042;49.444;6.862;2023-03-01T09:33:33;17.00;;;10.25;;
60169;SDS011;46042;49.444;6.862;2023-03-01T09:36:02;15.80;;;9.38;;
60169;SDS011;46042;49.444;6.862;2023-03-01T09:38:30;12.40;;;8.52;;
60169;SDS011;46042;49.444;6.862;2023-03-01T09:40:57;13.23;;;9.02;;
60169;SDS011;46042;49.444;6.862;2023-03-01T09:43:27;14.18;;;10.02;;
60169;SDS011;46042;49.444;6.862;2023-03-01T09:46:04;14.98;;;9.35;;
60169;SDS011;46042;49.444;6.862;2023-03-01T09:51:40;12.90;;;8.70;;
60169;SDS011;46042;49.444;6.862;2023-03-01T09:54:08;17.70;;;9.90;;
60169;SDS011;46042;49.444;6.862;2023-03-01T09:56:41;18.88;;;9.63;;
60169;SDS011;46042;49.444;6.862;2023-03-01T09:59:25;15.10;;;9.23;;
60169;SDS011;46042;49.444;6.862;2023-03-01T10:07:27;14.25;;;8.70;;
60169;SDS011;46042;49.444;6.862;2023-03-01T10:10:05;13.68;;;8.70;;
60169;SDS011;46042;49.444;6.862;2023-03-01T10:12:37;15.40;;;10.07;;
60169;SDS011;46042;49.444;6.862;2023-03-01T10:17:43;15.80;;;9.63;;
60169;SDS011;46042;49.444;6.862;2023-03-01T10:20:25;11.20;;;7.75;;
60169;SDS011;46042;49.444;6.862;2023-03-01T10:22:56;12.82;;;8.50;;
60169;SDS011;46042;49.444;6.862;2023-03-01T10:25:36;13.90;;;8.57;;
60169;SDS011;46042;49.444;6.862;2023-03-01T10:30:51;11.95;;;8.73;;
60169;SDS011;46042;49.444;6.862;2023-03-01T10:33:32;15.18;;;8.57;;
60169;SDS011;46042;49.444;6.862;2023-03-01T10:36:01;15.88;;;8.82;;
60169;SDS011;46042;49.444;6.862;2023-03-01T10:38:30;15.77;;;9.00;;
60169;SDS011;46042;49.444;6.862;2023-03-01T10:40:59;15.68;;;9.50;;
60169;SDS011;46042;49.444;6.862;2023-03-01T10:43:49;15.05;;;9.27;;
60169;SDS011;46042;49.444;6.862;2023-03-01T10:46:31;15.20;;;8.98;;
60169;SDS011;46042;49.444;6.862;2023-03-01T10:49:17;14.18;;;9.52;;
60169;SDS011;46042;49.444;6.862;2023-03-01T10:51:47;12.77;;;9.18;;
60169;SDS011;46042;49.444;6.862;2023-03-01T10:54:18;13.25;;;8.85;;
60169;SDS011;46042;49.444;6.862;2023-03-01T10:56:50;14.18;;;8.82;;
60169;SDS011;46042;49.444;6.862;2023-03-01T11:05:17;12.50;;;8.15;;
60169;SDS011;46042;49.444;6.862;2023-03-01T11:07:53;18.13;;;9.13;;
60169;SDS011;46042;49.444;6.862;2023-03-01T11:13:05;13.82;;;9.15;;
60169;SDS011;46042;49.444;6.862;2023-03-01T11:16:02;15.23;;;9.30;;
60169;SDS011;46042;49.444;6.862;2023-03-01T11:18:34;13.63;;;8.93;;
60169;SDS011;46042;49.444;6.862;2023-03-01T11:21:13;17.20;;;9.32;;
60169;SDS011;46042;49.444;6.862;2023-03-01T11:23:41;17.00;;;9.40;;
60169;SDS011;46042;49.444;6.862;2023-03-01T11:26:13;12.75;;;8.93;;
60169;SDS011;46042;49.444;6.862;2023-03-01T11:28:43;15.93;;;10.10;;
60169;SDS011;46042;49.444;6.862;2023-03-01T11:31:17;17.73;;;9.65;;
60169;SDS011;46042;49.444;6.862;2023-03-01T11:33:59;14.70;;;8.73;;
60169;SDS011;46042;49.444;6.862;2023-03-01T11:36:58;16.25;;;9.18;;
60169;SDS011;46042;49.444;6.862;2023-03-01T11:39:27;16.60;;;9.32;;
60169;SDS011;46042;49.444;6.862;2023-03-01T11:42:09;14.73;;;8.98;;
60169;SDS011;46042;49.444;6.862;2023-03-01T11:44:45;12.30;;;9.07;;
60169;SDS011;46042;49.444;6.862;2023-03-01T11:47:21;14.93;;;9.27;;
60169;SDS011;46042;49.444;6.862;2023-03-01T11:50:15;13.48;;;8.65;;
60169;SDS011;46042;49.444;6.862;2023-03-01T12:00:44;15.05;;;8.48;;
60169;SDS011;46042;49.444;6.862;2023-03-01T12:09:31;15.50;;;8.35;;
60169;SDS011;46042;49.444;6.862;2023-03-01T12:20:47;17.83;;;11.15;;
60169;SDS011;46042;49.444;6.862;2023-03-01T12:29:34;15.60;;;8.57;;
60169;SDS011;46042;49.444;6.862;2023-03-01T12:32:19;13.75;;;8.32;;
60169;SDS011;46042;49.444;6.862;2023-03-01T12:35:21;13.52;;;8.27;;
60169;SDS011;46042;49.444;6.862;2023-03-01T12:41:22;13.70;;;7.95;;
60169;SDS011;46042;49.444;6.862;2023-03-01T12:46:38;15.80;;;9.43;;
60169;SDS011;46042;49.444;6.862;2023-03-01T12:49:18;12.63;;;8.75;;
60169;SDS011;46042;49.444;6.862;2023-03-01T12:51:53;13.18;;;8.73;;
60169;SDS011;46042;49.444;6.862;2023-03-01T12:54:28;12.43;;;8.73;;
60169;SDS011;46042;49.444;6.862;2023-03-01T12:56:59;12.32;;;8.63;;
60169;SDS011;46042;49.444;6.862;2023-03-01T13:00:40;16.75;;;9.85;;
60169;SDS011;46042;49.444;6.862;2023-03-01T13:08:23;11.85;;;7.88;;
60169;SDS011;46042;49.444;6.862;2023-03-01T13:11:00;14.48;;;9.18;;
60169;SDS011;46042;49.444;6.862;2023-03-01T13:13:29;14.55;;;8.60;;
60169;SDS011;46042;49.444;6.862;2023-03-01T13:15:56;15.35;;;9.00;;
60169;SDS011;46042;49.444;6.862;2023-03-01T13:20:52;15.25;;;8.07;;
60169;SDS011;46042;49.444;6.862;2023-03-01T13:31:03;12.88;;;8.00;;
60169;SDS011;46042;49.444;6.862;2023-03-01T13:33:34;11.77;;;8.07;;
60169;SDS011;46042;49.444;6.862;2023-03-01T13:36:08;14.52;;;8.55;;
60169;SDS011;46042;49.444;6.862;2023-03-01T13:38:38;15.73;;;7.97;;
60169;SDS011;46042;49.444;6.862;2023-03-01T13:44:30;13.18;;;8.35;;
60169;SDS011;46042;49.444;6.862;2023-03-01T13:47:03;13.70;;;8.80;;
60169;SDS011;46042;49.444;6.862;2023-03-01T13:52:39;12.77;;;8.30;;
60169;SDS011;46042;49.444;6.862;2023-03-01T13:57:42;12.60;;;7.85;;
60169;SDS011;46042;49.444;6.862;2023-03-01T14:05:58;13.38;;;7.43;;
60169;SDS011;46042;49.444;6.862;2023-03-01T14:08:39;13.57;;;7.78;;
60169;SDS011;46042;49.444;6.862;2023-03-01T14:14:16;10.23;;;6.80;;
60169;SDS011;46042;49.444;6.862;2023-03-01T14:19:27;13.85;;;7.78;;
60169;SDS011;46042;49.444;6.862;2023-03-01T14:24:50;11.63;;;7.90;;
60169;SDS011;46042;49.444;6.862;2023-03-01T14:27:19;10.40;;;7.32;;
60169;SDS011;46042;49.444;6.862;2023-03-01T14:29:57;16.35;;;8.35;;
60169;SDS011;46042;49.444;6.862;2023-03-01T14:32:30;10.60;;;6.75;;
60169;SDS011;46042;49.444;6.862;2023-03-01T14:34:59;11.50;;;7.20;;
60169;SDS011;46042;49.444;6.862;2023-03-01T14:37:27;10.75;;;6.63;;
60169;SDS011;46042;49.444;6.862;2023-03-01T14:39:59;12.32;;;7.07;;
60169;SDS011;46042;49.444;6.862;2023-03-01T14:42:28;12.52;;;7.05;;
60169;SDS011;46042;49.444;6.862;2023-03-01T14:45:00;15.35;;;7.43;;
60169;SDS011;46042;49.444;6.862;2023-03-01T14:47:30;14.77;;;7.40;;
60169;SDS011;46042;49.444;6.862;2023-03-01T14:50:09;12.55;;;6.90;;
60169;SDS011;46042;49.444;6.862;2023-03-01T14:52:42;10.90;;;6.50;;
60169;SDS011;46042;49.444;6.862;2023-03-01T14:57:45;10.45;;;6.68;;
60169;SDS011;46042;49.444;6.862;2023-03-01T15:00:32;13.32;;;6.80;;
60169;SDS011;46042;49.444;6.862;2023-03-01T15:03:01;11.27;;;6.80;;
60169;SDS011;46042;49.444;6.862;2023-03-01T15:05:35;11.73;;;6.25;;
60169;SDS011;46042;49.444;6.862;2023-03-01T15:08:03;13.02;;;6.57;;
60169;SDS011;46042;49.444;6.862;2023-03-01T15:10:32;12.88;;;6.65;;
60169;SDS011;46042;49.444;6.862;2023-03-01T15:13:14;11.63;;;7.05;;
60169;SDS011;46042;49.444;6.862;2023-03-01T15:15:53;9.13;;;6.22;;
60169;SDS011;46042;49.444;6.862;2023-03-01T15:18:29;13.32;;;7.13;;
60169;SDS011;46042;49.444;6.862;2023-03-01T15:21:05;11.35;;;5.85;;
60169;SDS011;46042;49.444;6.862;2023-03-01T15:23:33;13.75;;;6.30;;
60169;SDS011;46042;49.444;6.862;2023-03-01T15:26:02;14.68;;;6.68;;
60169;SDS011;46042;49.444;6.862;2023-03-01T15:28:30;12.98;;;6.85;;
60169;SDS011;46042;49.444;6.862;2023-03-01T15:31:04;10.32;;;5.97;;
60169;SDS011;46042;49.444;6.862;2023-03-01T15:33:34;13.52;;;6.70;;
60169;SDS011;46042;49.444;6.862;2023-03-01T15:36:04;10.30;;;5.70;;
60169;SDS011;46042;49.444;6.862;2023-03-01T15:38:58;11.13;;;6.70;;
60169;SDS011;46042;49.444;6.862;2023-03-01T15:41:31;9.75;;;6.55;;
60169;SDS011;46042;49.444;6.862;2023-03-01T15:47:26;9.10;;;6.28;;
60169;SDS011;46042;49.444;6.862;2023-03-01T15:49:55;11.27;;;6.97;;
60169;SDS011;46042;49.444;6.862;2023-03-01T15:52:34;11.43;;;7.22;;
60169;SDS011;46042;49.444;6.862;2023-03-01T15:55:06;12.45;;;7.45;;
60169;SDS011;46042;49.444;6.862;2023-03-01T15:57:42;14.50;;;8.43;;
60169;SDS011;46042;49.444;6.862;2023-03-01T16:00:09;11.75;;;7.32;;
60169;SDS011;46042;49.444;6.862;2023-03-01T16:02:39;11.50;;;7.88;;
60169;SDS011;46042;49.444;6.862;2023-03-01T16:05:16;11.60;;;7.00;;
60169;SDS011;46042;49.444;6.862;2023-03-01T16:07:54;12.13;;;7.18;;
60169;SDS011;46042;49.444;6.862;2023-03-01T16:10:21;10.20;;;7.13;;
60169;SDS011;46042;49.444;6.862;2023-03-01T16:12:48;14.13;;;7.45;;
60169;SDS011;46042;49.444;6.862;2023-03-01T16:15:18;14.15;;;7.97;;
60169;SDS011;46042;49.444;6.862;2023-03-01T16:17:47;13.52;;;7.40;;
60169;SDS011;46042;49.444;6.862;2023-03-01T16:20:14;14.35;;;7.35;;
60169;SDS011;46042;49.444;6.862;2023-03-01T16:22:52;11.18;;;7.78;;
60169;SDS011;46042;49.444;6.862;2023-03-01T16:25:20;9.55;;;6.38;;
60169;SDS011;46042;49.444;6.862;2023-03-01T16:27:48;13.82;;;7.43;;
60169;SDS011;46042;49.444;6.862;2023-03-01T16:30:17;13.18;;;7.47;;
60169;SDS011;46042;49.444;6.862;2023-03-01T16:32:46;12.43;;;7.05;;
60169;SDS011;46042;49.444;6.862;2023-03-01T16:35:14;11.35;;;7.63;;
60169;SDS011;46042;49.444;6.862;2023-03-01T16:37:44;11.07;;;7.65;;
60169;SDS011;46042;49.444;6.862;2023-03-01T16:40:24;12.45;;;7.55;;
60169;SDS011;46042;49.444;6.862;2023-03-01T16:42:53;11.95;;;7.13;;
60169;SDS011;46042;49.444;6.862;2023-03-01T16:45:25;15.82;;;7.20;;
60169;SDS011;46042;49.444;6.862;2023-03-01T16:48:02;16.98;;;6.63;;
60169;SDS011;46042;49.444;6.862;2023-03-01T16:50:29;12.02;;;6.68;;